Latest Weather Observations for Bellambi

IDN60901

Issued at 8:21 pm EDT Sunday 24 January 2021 (issued every 10 minutes, with the page automatically refreshed every 10 minutes)

About weather observations | Map of Sydney area stations | Latest observations for Sydney area | Other Formats
Station Details ID: 068228 Name: BELLAMBI AWS Lat: -34.37 Lon: 150.93 Height: 10.0 m
Data from the previous 72 hours. | See also: Recent months at Bellambi
Date/Time
EDT
Temp
°C
App
Temp
°C
Dew
Point
°C
Rel
Hum
%
Delta-T
°C
Wind Press
QNH
hPa
Press
MSL
hPa
Rain since
9am
mm
Dir  Spd
km/h
Gust
km/h
Spd
kts
Gust
kts
24/08:00pm 24.4 22.6 16.9 63 4.6 ENE 22 32 12 17 - - 0.0
24/07:30pm 24.2 20.9 17.9 68 3.9 NE 32 37 17 20 - - 0.0
24/07:00pm 24.2 21.6 18.6 71 3.5 NE 30 37 16 20 - - 0.0
24/06:30pm 24.2 22.4 18.8 72 3.4 NE 26 32 14 17 - - 0.0
24/06:00pm 24.5 23.3 17.5 65 4.4 NNW 20 28 11 15 - - 0.0
24/05:30pm 24.3 24.1 18.5 70 3.7 N 17 24 9 13 - - 0.0
24/05:00pm 24.4 22.2 18.6 70 3.7 NNE 28 39 15 21 - - 0.0
24/04:30pm 24.6 23.9 19.4 73 3.3 N 22 28 12 15 - - 0.0
24/04:00pm 25.0 24.3 19.6 72 3.5 NNE 22 32 12 17 - - 0.0
24/03:30pm 25.8 25.3 19.9 70 3.8 NNE 22 32 12 17 - - 0.0
24/03:14pm 25.3 23.2 19.0 68 4.0 NNE 28 37 15 20 - - 0.0
24/03:00pm 25.7 27.0 19.3 67 4.1 ESE 11 19 6 10 - - 0.0
24/02:30pm 24.4 25.1 19.7 75 3.0 NNW 15 22 8 12 - - 0.0
24/02:00pm 25.5 26.1 20.3 73 3.4 N 17 24 9 13 - - 0.0
24/01:30pm 25.5 26.6 20.5 74 3.3 N 15 24 8 13 - - 0.0
24/01:00pm 25.5 25.9 20.7 75 3.1 N 19 24 10 13 - - 0.0
24/12:30pm 25.2 25.8 20.2 74 3.3 N 17 22 9 12 - - 0.0
24/12:00pm 25.3 27.5 21.2 78 2.7 N 11 15 6 8 - - 0.0
24/11:30am 25.4 24.7 21.1 77 2.8 NE 26 30 14 16 - - 0.0
24/11:00am 25.2 24.5 21.1 78 2.7 NE 26 30 14 16 - - 0.0
24/10:30am 25.2 24.6 21.3 79 2.6 NE 26 30 14 16 - - 0.0
24/10:00am 25.3 25.8 21.2 78 2.7 ENE 20 24 11 13 - - 0.0
24/09:30am 24.7 25.7 21.0 80 2.4 ENE 17 19 9 10 - - 0.0
24/09:00am 24.4 26.6 21.1 82 2.2 ENE 11 15 6 8 - - 0.0
24/08:30am 24.3 25.6 20.8 81 2.3 NE 15 19 8 10 - - 0.0
24/08:00am 23.5 25.5 20.8 85 1.8 NE 11 17 6 9 - - 0.0
24/07:30am 23.3 26.5 21.2 88 1.4 N 6 9 3 5 - - 0.0
24/07:00am 22.3 24.5 20.4 89 1.2 NNW 9 9 5 5 - - 0.0
24/06:30am 21.8 24.3 19.9 89 1.2 NNW 6 7 3 4 - - 0.0
24/06:00am 21.8 24.2 19.7 88 1.3 NNW 6 9 3 5 - - 0.0
24/05:30am 22.0 24.3 19.9 88 1.3 WNW 7 9 4 5 - - 0.0
24/05:00am 22.3 26.1 20.2 88 1.4 CALM 0 0 0 0 - - 0.0
24/04:30am 22.8 26.9 20.7 88 1.4 CALM 0 0 0 0 - - 0.0
24/04:00am 22.9 27.0 20.8 88 1.4 CALM 0 0 0 0 - - 0.0
24/03:42am 22.8 26.9 20.7 88 1.4 CALM 0 0 0 0 - - 0.0
24/03:30am 22.9 27.1 21.0 89 1.2 CALM 0 0 0 0 - - 0.0
24/03:05am 23.0 26.2 21.3 90 1.1 SW 6 7 3 4 - - 0.0
24/03:00am 23.1 26.4 21.4 90 1.1 SW 6 9 3 5 - - 0.0
24/02:38am 23.0 26.2 21.3 90 1.1 SSW 6 7 3 4 - - 0.0
24/02:30am 22.9 26.1 21.2 90 1.1 SSW 6 9 3 5 - - 0.0
24/02:00am 23.0 26.0 21.3 90 1.1 SW 7 9 4 5 - - 0.0
24/01:30am 22.9 25.9 21.2 90 1.1 SW 7 9 4 5 - - 0.0
24/01:19am 22.8 25.7 21.1 90 1.1 SW 7 9 4 5 - - 0.0
24/01:00am 22.5 25.3 20.8 90 1.1 SW 7 9 4 5 - - 0.0
24/12:30am 22.7 25.2 21.0 90 1.1 SSW 9 11 5 6 - - 0.0
24/12:00am 22.6 24.7 20.9 90 1.1 SSW 11 13 6 7 - - 0.0
 
Date/Time
EDT
Temp
°C
App
Temp
°C
Dew
Point
°C
Rel
Hum
%
Delta-T
°C
Wind Press
QNH
hPa
Press
MSL
hPa
Rain since
9am
mm
Dir  Spd
km/h
Gust
km/h
Spd
kts
Gust
kts
23/11:30pm 22.9 25.5 21.2 90 1.1 SW 9 11 5 6 - - 0.0
23/11:00pm 22.8 25.3 21.1 90 1.1 SW 9 11 5 6 - - 0.0
23/10:30pm 23.2 25.1 21.3 89 1.2 S 13 13 7 7 - - 0.0
23/10:00pm 23.3 25.0 21.6 90 1.1 S 15 17 8 9 - - 0.0
23/09:30pm 23.2 25.1 21.3 89 1.2 SSW 13 15 7 8 - - 0.0
23/09:00pm 23.4 25.3 21.3 88 1.4 SSW 13 15 7 8 - - 0.0
23/08:42pm 23.5 25.0 21.2 87 1.5 SSW 15 17 8 9 - - 0.0
23/08:30pm 23.7 25.5 21.2 86 1.6 S 13 15 7 8 - - 0.0
23/08:00pm 23.9 26.4 21.0 84 1.9 SSW 9 11 5 6 - - 0.0
23/07:30pm 23.9 25.3 20.4 81 2.3 S 13 15 7 8 - - 0.0
23/07:04pm 24.9 27.8 20.6 77 2.8 NW 6 13 3 7 - - 0.0
23/07:00pm 25.0 28.2 20.5 76 2.9 NW 4 7 2 4 - - 0.0
23/06:30pm 25.0 28.2 20.5 76 2.9 N 4 7 2 4 - - 0.0
23/06:00pm 25.1 27.2 20.1 74 3.2 NNW 9 11 5 6 - - 0.0
23/05:30pm 25.2 27.6 20.0 73 3.4 NNW 7 9 4 5 - - 0.0
23/05:00pm 24.8 26.8 19.2 71 3.6 NNE 7 7 4 4 - - 0.0
23/04:30pm 25.3 27.4 19.4 70 3.8 NNE 7 11 4 6 - - 0.0
23/04:00pm 25.4 27.1 19.3 69 3.9 NNE 9 11 5 6 - - 0.0
23/03:30pm 26.0 28.0 19.9 69 4.0 NNE 9 11 5 6 - - 0.0
23/03:00pm 26.0 27.6 19.9 69 4.0 NE 11 13 6 7 - - 0.0
23/02:30pm 25.3 26.5 19.0 68 4.0 NE 11 13 6 7 - - 0.0
23/02:00pm 24.9 25.9 18.6 68 4.0 NE 11 13 6 7 - - 0.0
23/01:30pm 24.9 25.8 18.4 67 4.1 ENE 11 13 6 7 - - 0.0
23/01:00pm 24.6 25.7 18.1 67 4.1 E 9 11 5 6 - - 0.0
23/12:30pm 24.4 25.4 16.9 63 4.6 SE 7 9 4 5 - - 0.0
23/12:00pm 24.9 25.7 18.1 66 4.3 SE 11 17 6 9 - - 0.0
23/11:30am 24.7 25.5 18.2 67 4.1 SE 11 13 6 7 - - 0.0
23/11:00am 24.2 24.2 17.2 65 4.3 SSE 13 17 7 9 - - 0.0
23/10:30am 24.5 23.5 17.5 65 4.4 SSE 19 22 10 12 - - 0.0
23/10:00am 24.5 23.5 17.5 65 4.4 SSE 19 26 10 14 - - 0.0
23/09:30am 24.1 21.4 16.6 63 4.6 S 26 30 14 16 - - 0.0
23/09:00am 23.8 21.6 16.8 65 4.3 S 24 30 13 16 - - 0.0
23/08:30am 23.5 21.3 16.8 66 4.1 S 24 30 13 16 - - 0.0
23/08:00am 23.4 24.6 19.1 77 2.7 SSW 11 13 6 7 - - 0.0
23/07:30am 22.7 24.9 19.1 80 2.3 SSW 6 7 3 4 - - 0.0
23/07:00am 21.6 24.1 18.2 81 2.1 SSW 2 9 1 5 - - 0.0
23/06:30am 21.6 22.4 18.2 81 2.1 SW 11 15 6 8 - - 0.0
23/06:00am 21.0 21.9 18.4 85 1.6 SW 11 13 6 7 - - 0.0
23/05:30am 20.5 22.1 18.3 87 1.4 SW 7 11 4 6 - - 0.0
23/05:00am 20.6 21.9 18.4 87 1.4 SW 9 11 5 6 - - 0.0
23/04:30am 20.7 22.5 18.3 86 1.5 WSW 6 11 3 6 - - 0.0
23/04:00am 21.2 23.2 18.8 86 1.5 WNW 6 9 3 5 - - 0.0
23/03:30am 21.8 23.9 19.4 86 1.5 NNE 7 13 4 7 - - 0.0
23/03:00am 21.8 22.8 19.4 86 1.5 N 13 15 7 8 - - 0.0
23/02:30am 22.1 23.1 19.5 85 1.7 WNW 13 15 7 8 - - 0.0
23/02:00am 22.2 25.3 19.4 84 1.8 WNW 2 7 1 4 - - 0.0
23/01:30am 21.9 24.0 19.3 85 1.7 SSW 7 11 4 6 - - 0.0
23/01:00am 22.1 21.1 19.6 86 1.6 S 24 28 13 15 - - 0.0
23/12:30am 22.3 22.8 19.3 83 1.9 SSW 15 19 8 10 - - 0.0
23/12:00am 22.6 23.9 19.4 82 2.0 SSW 11 17 6 9 - - 0.0
 
Date/Time
EDT
Temp
°C
App
Temp
°C
Dew
Point
°C
Rel
Hum
%
Delta-T
°C
Wind Press
QNH
hPa
Press
MSL
hPa
Rain since
9am
mm
Dir  Spd
km/h
Gust
km/h
Spd
kts
Gust
kts
22/11:30pm 22.9 24.1 19.1 79 2.4 NE 11 17 6 9 - - 0.0
22/11:00pm 22.8 24.9 19.0 79 2.4 NNE 6 9 3 5 - - 0.0
22/10:30pm 22.9 24.0 18.9 78 2.5 N 11 15 6 8 - - 0.0
22/10:00pm 23.5 25.0 19.0 76 2.9 N 9 13 5 7 - - 0.0
22/09:30pm 23.4 25.1 19.3 78 2.6 NNE 9 15 5 8 - - 0.0
22/09:00pm 23.1 24.7 19.1 78 2.5 N 9 13 5 7 - - 0.0
22/08:30pm 23.4 24.3 19.3 78 2.6 N 13 19 7 10 - - 0.0
22/08:00pm 23.3 24.0 19.7 80 2.3 NNE 15 20 8 11 - - 0.0
22/07:30pm 23.5 23.8 19.6 79 2.5 NNW 17 22 9 12 - - 0.0
22/07:00pm 23.4 24.6 19.8 80 2.3 N 13 24 7 13 - - 0.0
22/06:30pm 23.9 23.5 19.4 76 2.9 NNE 20 32 11 17 - - 0.0
22/06:00pm 23.8 22.9 19.9 79 2.5 NNE 24 32 13 17 - - 0.0
22/05:30pm 24.0 21.9 19.7 77 2.8 NE 30 37 16 20 - - 0.0
22/05:00pm 24.2 21.2 19.9 77 2.8 NNE 35 44 19 24 - - 0.0
22/04:30pm 24.3 21.7 19.6 75 3.0 N 32 39 17 21 - - 0.0
22/04:00pm 24.6 24.5 19.9 75 3.0 N 20 30 11 16 - - 0.0
22/03:30pm 24.7 26.0 20.2 76 2.9 N 13 17 7 9 - - 0.0
22/03:00pm 23.9 24.7 19.8 78 2.6 N 15 20 8 11 - - 0.0
22/02:30pm 23.4 23.8 19.1 77 2.7 N 15 20 8 11 - - 0.0
22/02:00pm 24.4 24.1 19.5 74 3.1 N 20 30 11 16 - - 0.0
22/01:30pm 24.2 23.8 19.3 74 3.1 NNE 20 28 11 15 - - 0.0
22/01:00pm 24.3 24.6 19.6 75 3.0 N 17 20 9 11 - - 0.0
22/12:30pm 24.8 24.6 19.4 72 3.5 NE 19 26 10 14 - - 0.0
22/12:00pm 24.5 23.6 19.8 75 3.0 NE 24 30 13 16 - - 0.0
22/11:30am 23.9 22.4 18.5 72 3.4 NE 24 28 13 15 - - 0.0
22/11:00am 24.0 22.7 19.1 74 3.1 ENE 24 28 13 15 - - 0.0
22/10:30am 23.6 22.4 18.5 73 3.2 NE 22 24 12 13 - - 0.0
22/10:00am 24.0 23.3 18.2 70 3.6 NE 19 22 10 12 - - 0.0
22/09:30am 23.2 22.7 17.7 71 3.4 NE 17 22 9 12 - - 0.0
22/09:00am 22.4 21.7 17.3 73 3.1 NNE 17 19 9 10 - - 0.0
22/08:30am 22.2 22.6 17.3 74 3.0 NNW 11 13 6 7 - - 0.0
22/08:00am 20.8 22.4 16.0 74 2.9 NNW 2 7 1 4 - - 0.0
22/07:30am 20.1 21.8 15.3 74 2.8 CALM 0 0 0 0 - - 0.0
22/07:00am 19.2 19.9 15.5 79 2.2 NW 6 7 3 4 - - 0.0
22/06:30am 18.6 18.5 14.9 79 2.2 NW 9 11 5 6 - - 0.0
22/06:00am 19.0 18.5 14.9 77 2.4 WNW 11 17 6 9 - - 0.0
22/05:30am 20.1 19.0 15.3 74 2.8 NNE 15 19 8 10 - - 0.0
22/05:00am 19.9 18.7 15.1 74 2.8 NNE 15 22 8 12 - - 0.0
22/04:30am 20.5 19.2 15.9 75 2.7 N 17 26 9 14 - - 0.0
22/04:00am 20.4 19.8 15.6 74 2.9 N 13 20 7 11 - - 0.0
22/03:30am 20.4 19.8 15.6 74 2.9 N 13 17 7 9 - - 0.0
22/03:00am 20.5 20.0 15.9 75 2.7 NNW 13 15 7 8 - - 0.0
22/02:30am 20.4 19.3 15.4 73 3.0 NNW 15 19 8 10 - - 0.0
22/02:00am 20.8 19.0 15.4 71 3.2 N 19 26 10 14 - - 0.0
22/01:30am 20.4 19.9 15.8 75 2.7 NNE 13 19 7 10 - - 0.0
22/01:00am 20.5 19.9 15.7 74 2.9 NNW 13 17 7 9 - - 0.0
22/12:30am 20.6 19.6 15.6 73 3.0 NNW 15 19 8 10 - - 0.0
22/12:00am 20.9 18.5 15.4 71 3.3 N 22 30 12 16 - - 0.0
 
Date/Time
EDT
Temp
°C
App
Temp
°C
Dew
Point
°C
Rel
Hum
%
Delta-T
°C
Wind Press
QNH
hPa
Press
MSL
hPa
Rain since
9am
mm
Dir  Spd
km/h
Gust
km/h
Spd
kts
Gust
kts
21/11:30pm 21.3 18.9 16.3 73 3.0 N 24 32 13 17 - - 0.0
21/11:00pm 21.1 19.5 16.5 75 2.8 N 20 24 11 13 - - 0.0
21/10:30pm 21.1 19.3 16.1 73 3.0 N 20 24 11 13 - - 0.0
21/10:00pm 21.1 19.5 15.9 72 3.1 N 19 24 10 13 - - 0.0
21/09:30pm 21.3 19.5 16.0 72 3.2 N 20 26 11 14 - - 0.0
21/09:00pm 21.4 18.9 16.1 72 3.2 NNE 24 28 13 15 - - 0.0
21/08:30pm 21.6 17.9 16.1 71 3.3 NNE 30 37 16 20 - - 0.0

Latest Capital City Observations: Canberra | Sydney | Melbourne | Brisbane | Adelaide | Perth | Hobart | Darwin

Other formats

Comma delimited format used in spreadsheet applications
http://www.bom.gov.au/fwo/IDN60901/IDN60901.94749.axf

JavaScript Object Notation format (JSON) in row-major order
http://www.bom.gov.au/fwo/IDN60901/IDN60901.94749.json

Data quality

Most of these data are generated automatically and are frequently updated. Quality checks on data are not normally performed. It is possible for incorrect values to appear. Refer to information at About Latest Weather Observations and please check the disclaimer before using these data.